Terminal Aerodrome Forecast
Issued by NWS

Home | Current Version | Previous Version | Text Only | Print | Product List | Glossary On
Versions: 1 2 3 4 5 6 7 8 9 10 11 12 13 14 15 16 17 18 19 20 21 22 23 24 25 26 27 28 29
000
FTUS42 KTAE 060500
TAFECP
TAF
KECP 060535Z 0606/0706 34010G18KT P6SM SCT070 BKN100
     FM061400 01009KT P6SM BKN050
     FM061800 01007KT P6SM BKN110
     FM070000 01004KT P6SM SCT250=

USA.gov is the U.S. government's official web portal to all federal, state and local government web resources and services.